sensor_id;sensor_type;location;lat;lon;timestamp;P1;durP1;ratioP1;P2;durP2;ratioP2
19207;SDS011;9737;59.466;18.036;2023-02-22T00:00:57;8.77;;;5.43;;
19207;SDS011;9737;59.466;18.036;2023-02-22T00:03:28;9.27;;;5.00;;
19207;SDS011;9737;59.466;18.036;2023-02-22T00:05:59;8.30;;;4.60;;
19207;SDS011;9737;59.466;18.036;2023-02-22T00:08:31;6.95;;;4.30;;
19207;SDS011;9737;59.466;18.036;2023-02-22T00:11:01;8.38;;;5.07;;
19207;SDS011;9737;59.466;18.036;2023-02-22T00:13:35;8.52;;;5.32;;
19207;SDS011;9737;59.466;18.036;2023-02-22T00:16:04;8.25;;;4.78;;
19207;SDS011;9737;59.466;18.036;2023-02-22T00:18:32;7.85;;;5.28;;
19207;SDS011;9737;59.466;18.036;2023-02-22T00:21:00;8.85;;;5.10;;
19207;SDS011;9737;59.466;18.036;2023-02-22T00:23:29;8.23;;;4.90;;
19207;SDS011;9737;59.466;18.036;2023-02-22T00:25:58;8.68;;;4.50;;
19207;SDS011;9737;59.466;18.036;2023-02-22T00:28:27;8.02;;;4.80;;
19207;SDS011;9737;59.466;18.036;2023-02-22T00:30:57;10.23;;;5.22;;
19207;SDS011;9737;59.466;18.036;2023-02-22T00:33:25;8.50;;;5.05;;
19207;SDS011;9737;59.466;18.036;2023-02-22T00:35:53;8.05;;;4.70;;
19207;SDS011;9737;59.466;18.036;2023-02-22T00:38:21;8.35;;;4.68;;
19207;SDS011;9737;59.466;18.036;2023-02-22T00:40:50;7.10;;;4.70;;
19207;SDS011;9737;59.466;18.036;2023-02-22T00:43:18;7.53;;;4.88;;
19207;SDS011;9737;59.466;18.036;2023-02-22T00:45:46;8.10;;;5.00;;
19207;SDS011;9737;59.466;18.036;2023-02-22T00:48:15;7.20;;;4.93;;
19207;SDS011;9737;59.466;18.036;2023-02-22T00:50:44;8.65;;;5.28;;
19207;SDS011;9737;59.466;18.036;2023-02-22T00:53:14;7.30;;;4.60;;
19207;SDS011;9737;59.466;18.036;2023-02-22T00:55:45;8.65;;;5.10;;
19207;SDS011;9737;59.466;18.036;2023-02-22T00:58:13;8.13;;;4.63;;
19207;SDS011;9737;59.466;18.036;2023-02-22T01:00:43;6.05;;;4.32;;
19207;SDS011;9737;59.466;18.036;2023-02-22T01:03:13;7.95;;;5.05;;
19207;SDS011;9737;59.466;18.036;2023-02-22T01:05:43;8.57;;;5.07;;
19207;SDS011;9737;59.466;18.036;2023-02-22T01:08:12;9.93;;;5.07;;
19207;SDS011;9737;59.466;18.036;2023-02-22T01:10:42;7.22;;;4.75;;
19207;SDS011;9737;59.466;18.036;2023-02-22T01:13:10;10.93;;;5.60;;
19207;SDS011;9737;59.466;18.036;2023-02-22T01:15:39;9.68;;;5.30;;
19207;SDS011;9737;59.466;18.036;2023-02-22T01:18:12;8.60;;;5.07;;
19207;SDS011;9737;59.466;18.036;2023-02-22T01:20:44;7.85;;;5.22;;
19207;SDS011;9737;59.466;18.036;2023-02-22T01:23:13;7.00;;;5.00;;
19207;SDS011;9737;59.466;18.036;2023-02-22T01:25:42;9.50;;;5.30;;
19207;SDS011;9737;59.466;18.036;2023-02-22T01:28:10;11.82;;;5.80;;
19207;SDS011;9737;59.466;18.036;2023-02-22T01:30:40;8.57;;;5.00;;
19207;SDS011;9737;59.466;18.036;2023-02-22T01:33:08;8.45;;;5.13;;
19207;SDS011;9737;59.466;18.036;2023-02-22T01:35:38;7.97;;;4.82;;
19207;SDS011;9737;59.466;18.036;2023-02-22T01:38:08;8.63;;;5.43;;
19207;SDS011;9737;59.466;18.036;2023-02-22T01:40:37;8.27;;;5.20;;
19207;SDS011;9737;59.466;18.036;2023-02-22T01:43:13;10.27;;;5.65;;
19207;SDS011;9737;59.466;18.036;2023-02-22T01:45:49;8.52;;;5.47;;
19207;SDS011;9737;59.466;18.036;2023-02-22T01:48:23;8.77;;;5.47;;
19207;SDS011;9737;59.466;18.036;2023-02-22T01:50:57;10.55;;;5.55;;
19207;SDS011;9737;59.466;18.036;2023-02-22T01:53:30;10.35;;;5.20;;
19207;SDS011;9737;59.466;18.036;2023-02-22T01:56:03;8.30;;;4.93;;
19207;SDS011;9737;59.466;18.036;2023-02-22T01:58:33;8.73;;;5.20;;
19207;SDS011;9737;59.466;18.036;2023-02-22T02:01:04;9.15;;;5.60;;
19207;SDS011;9737;59.466;18.036;2023-02-22T02:03:34;11.00;;;5.35;;
19207;SDS011;9737;59.466;18.036;2023-02-22T02:06:05;8.02;;;5.20;;
19207;SDS011;9737;59.466;18.036;2023-02-22T02:08:43;10.13;;;5.40;;
19207;SDS011;9737;59.466;18.036;2023-02-22T02:11:18;11.48;;;5.43;;
19207;SDS011;9737;59.466;18.036;2023-02-22T02:13:48;10.00;;;5.15;;
19207;SDS011;9737;59.466;18.036;2023-02-22T02:16:16;8.50;;;5.68;;
19207;SDS011;9737;59.466;18.036;2023-02-22T02:18:46;8.38;;;5.10;;
19207;SDS011;9737;59.466;18.036;2023-02-22T02:21:30;9.60;;;5.47;;
19207;SDS011;9737;59.466;18.036;2023-02-22T02:27:22;8.55;;;5.55;;
19207;SDS011;9737;59.466;18.036;2023-02-22T02:33:03;10.52;;;5.78;;
19207;SDS011;9737;59.466;18.036;2023-02-22T02:35:40;7.97;;;5.28;;
19207;SDS011;9737;59.466;18.036;2023-02-22T02:38:18;9.80;;;5.72;;
19207;SDS011;9737;59.466;18.036;2023-02-22T02:40:57;11.07;;;5.82;;
19207;SDS011;9737;59.466;18.036;2023-02-22T02:43:31;11.23;;;6.20;;
19207;SDS011;9737;59.466;18.036;2023-02-22T02:46:05;7.97;;;5.07;;
19207;SDS011;9737;59.466;18.036;2023-02-22T02:48:39;9.77;;;5.13;;
19207;SDS011;9737;59.466;18.036;2023-02-22T02:51:12;10.80;;;5.75;;
19207;SDS011;9737;59.466;18.036;2023-02-22T02:53:45;9.57;;;5.18;;
19207;SDS011;9737;59.466;18.036;2023-02-22T02:56:16;9.15;;;5.28;;
19207;SDS011;9737;59.466;18.036;2023-02-22T02:58:45;8.45;;;5.25;;
19207;SDS011;9737;59.466;18.036;2023-02-22T03:01:26;8.13;;;5.40;;
19207;SDS011;9737;59.466;18.036;2023-02-22T03:04:15;8.13;;;5.05;;
19207;SDS011;9737;59.466;18.036;2023-02-22T03:06:59;8.48;;;5.28;;
19207;SDS011;9737;59.466;18.036;2023-02-22T03:09:37;9.23;;;5.20;;
19207;SDS011;9737;59.466;18.036;2023-02-22T03:12:17;9.10;;;5.25;;
19207;SDS011;9737;59.466;18.036;2023-02-22T03:15:02;9.55;;;5.50;;
19207;SDS011;9737;59.466;18.036;2023-02-22T03:17:40;9.90;;;5.30;;
19207;SDS011;9737;59.466;18.036;2023-02-22T03:20:17;9.73;;;5.80;;
19207;SDS011;9737;59.466;18.036;2023-02-22T03:22:58;11.57;;;5.65;;
19207;SDS011;9737;59.466;18.036;2023-02-22T03:25:31;8.65;;;5.35;;
19207;SDS011;9737;59.466;18.036;2023-02-22T03:28:04;8.80;;;5.57;;
19207;SDS011;9737;59.466;18.036;2023-02-22T03:30:37;10.45;;;5.95;;
19207;SDS011;9737;59.466;18.036;2023-02-22T03:33:10;11.13;;;6.15;;
19207;SDS011;9737;59.466;18.036;2023-02-22T03:35:45;12.30;;;5.97;;
19207;SDS011;9737;59.466;18.036;2023-02-22T03:38:16;11.75;;;5.65;;
19207;SDS011;9737;59.466;18.036;2023-02-22T03:40:47;9.88;;;5.63;;
19207;SDS011;9737;59.466;18.036;2023-02-22T03:43:21;8.10;;;5.28;;
19207;SDS011;9737;59.466;18.036;2023-02-22T03:45:51;9.23;;;5.80;;
19207;SDS011;9737;59.466;18.036;2023-02-22T03:48:21;12.20;;;5.57;;
19207;SDS011;9737;59.466;18.036;2023-02-22T03:50:56;9.82;;;5.47;;
19207;SDS011;9737;59.466;18.036;2023-02-22T03:53:27;8.98;;;5.63;;
19207;SDS011;9737;59.466;18.036;2023-02-22T03:55:58;9.38;;;5.85;;
19207;SDS011;9737;59.466;18.036;2023-02-22T03:58:30;9.40;;;5.32;;
19207;SDS011;9737;59.466;18.036;2023-02-22T04:00:59;9.73;;;5.30;;
19207;SDS011;9737;59.466;18.036;2023-02-22T04:03:27;9.15;;;5.82;;
19207;SDS011;9737;59.466;18.036;2023-02-22T04:05:56;11.57;;;6.00;;
19207;SDS011;9737;59.466;18.036;2023-02-22T04:08:24;9.88;;;5.72;;
19207;SDS011;9737;59.466;18.036;2023-02-22T04:10:52;10.48;;;5.50;;
19207;SDS011;9737;59.466;18.036;2023-02-22T04:13:21;10.25;;;6.05;;
19207;SDS011;9737;59.466;18.036;2023-02-22T04:15:49;11.52;;;6.15;;
19207;SDS011;9737;59.466;18.036;2023-02-22T04:18:16;9.60;;;5.28;;
19207;SDS011;9737;59.466;18.036;2023-02-22T04:20:45;11.52;;;5.65;;
19207;SDS011;9737;59.466;18.036;2023-02-22T04:23:14;13.20;;;6.53;;
19207;SDS011;9737;59.466;18.036;2023-02-22T04:25:42;9.73;;;5.65;;
19207;SDS011;9737;59.466;18.036;2023-02-22T04:28:10;9.35;;;5.82;;
19207;SDS011;9737;59.466;18.036;2023-02-22T04:30:38;11.15;;;6.43;;
19207;SDS011;9737;59.466;18.036;2023-02-22T04:33:06;11.05;;;6.57;;
19207;SDS011;9737;59.466;18.036;2023-02-22T04:35:34;11.13;;;6.25;;
19207;SDS011;9737;59.466;18.036;2023-02-22T04:38:02;15.13;;;6.00;;
19207;SDS011;9737;59.466;18.036;2023-02-22T04:40:31;14.57;;;6.78;;
19207;SDS011;9737;59.466;18.036;2023-02-22T04:42:59;13.15;;;6.60;;
19207;SDS011;9737;59.466;18.036;2023-02-22T04:45:27;15.48;;;6.30;;
19207;SDS011;9737;59.466;18.036;2023-02-22T04:47:55;11.27;;;6.28;;
19207;SDS011;9737;59.466;18.036;2023-02-22T04:50:24;11.75;;;6.05;;
19207;SDS011;9737;59.466;18.036;2023-02-22T04:52:58;10.60;;;6.05;;
19207;SDS011;9737;59.466;18.036;2023-02-22T04:55:26;14.80;;;6.57;;
19207;SDS011;9737;59.466;18.036;2023-02-22T04:57:56;12.90;;;6.20;;
19207;SDS011;9737;59.466;18.036;2023-02-22T05:00:24;12.63;;;6.35;;
19207;SDS011;9737;59.466;18.036;2023-02-22T05:02:52;13.13;;;6.30;;
19207;SDS011;9737;59.466;18.036;2023-02-22T05:05:20;14.40;;;6.50;;
19207;SDS011;9737;59.466;18.036;2023-02-22T05:07:48;12.80;;;6.82;;
19207;SDS011;9737;59.466;18.036;2023-02-22T05:10:16;12.85;;;6.30;;
19207;SDS011;9737;59.466;18.036;2023-02-22T05:12:45;12.30;;;6.68;;
19207;SDS011;9737;59.466;18.036;2023-02-22T05:15:16;13.05;;;6.22;;
19207;SDS011;9737;59.466;18.036;2023-02-22T05:17:45;11.32;;;6.25;;
19207;SDS011;9737;59.466;18.036;2023-02-22T05:20:15;11.40;;;6.55;;
19207;SDS011;9737;59.466;18.036;2023-02-22T05:22:48;13.05;;;6.90;;
19207;SDS011;9737;59.466;18.036;2023-02-22T05:25:17;13.35;;;6.90;;
19207;SDS011;9737;59.466;18.036;2023-02-22T05:27:50;10.52;;;6.28;;
19207;SDS011;9737;59.466;18.036;2023-02-22T05:30:21;12.70;;;6.75;;
19207;SDS011;9737;59.466;18.036;2023-02-22T05:32:51;11.30;;;6.68;;
19207;SDS011;9737;59.466;18.036;2023-02-22T05:35:20;12.48;;;6.75;;
19207;SDS011;9737;59.466;18.036;2023-02-22T05:37:48;12.10;;;6.30;;
19207;SDS011;9737;59.466;18.036;2023-02-22T05:40:17;14.05;;;7.25;;
19207;SDS011;9737;59.466;18.036;2023-02-22T05:42:46;12.40;;;6.85;;
19207;SDS011;9737;59.466;18.036;2023-02-22T05:45:15;12.63;;;7.07;;
19207;SDS011;9737;59.466;18.036;2023-02-22T05:47:46;13.00;;;6.70;;
19207;SDS011;9737;59.466;18.036;2023-02-22T05:50:14;13.63;;;6.75;;
19207;SDS011;9737;59.466;18.036;2023-02-22T05:52:43;11.55;;;6.78;;
19207;SDS011;9737;59.466;18.036;2023-02-22T05:55:12;14.93;;;7.20;;
19207;SDS011;9737;59.466;18.036;2023-02-22T05:57:41;14.55;;;6.88;;
19207;SDS011;9737;59.466;18.036;2023-02-22T06:00:13;13.38;;;7.25;;
19207;SDS011;9737;59.466;18.036;2023-02-22T06:02:43;14.50;;;7.13;;
19207;SDS011;9737;59.466;18.036;2023-02-22T06:05:12;12.25;;;6.07;;
19207;SDS011;9737;59.466;18.036;2023-02-22T06:07:40;13.30;;;6.50;;
19207;SDS011;9737;59.466;18.036;2023-02-22T06:10:08;10.88;;;6.30;;
19207;SDS011;9737;59.466;18.036;2023-02-22T06:12:36;13.25;;;6.40;;
19207;SDS011;9737;59.466;18.036;2023-02-22T06:15:04;16.52;;;7.13;;
19207;SDS011;9737;59.466;18.036;2023-02-22T06:17:32;15.80;;;6.95;;
19207;SDS011;9737;59.466;18.036;2023-02-22T06:20:01;14.32;;;7.13;;
19207;SDS011;9737;59.466;18.036;2023-02-22T06:22:30;13.88;;;7.05;;
19207;SDS011;9737;59.466;18.036;2023-02-22T06:24:58;14.77;;;7.05;;
19207;SDS011;9737;59.466;18.036;2023-02-22T06:27:29;14.13;;;6.90;;
19207;SDS011;9737;59.466;18.036;2023-02-22T06:29:58;14.07;;;6.55;;
19207;SDS011;9737;59.466;18.036;2023-02-22T06:32:26;15.15;;;7.65;;
19207;SDS011;9737;59.466;18.036;2023-02-22T06:34:55;13.43;;;7.53;;
19207;SDS011;9737;59.466;18.036;2023-02-22T06:37:22;12.88;;;6.90;;
19207;SDS011;9737;59.466;18.036;2023-02-22T06:39:52;17.83;;;8.00;;
19207;SDS011;9737;59.466;18.036;2023-02-22T06:42:19;16.63;;;7.93;;
19207;SDS011;9737;59.466;18.036;2023-02-22T06:44:48;15.88;;;8.00;;
19207;SDS011;9737;59.466;18.036;2023-02-22T06:47:17;21.75;;;7.97;;
19207;SDS011;9737;59.466;18.036;2023-02-22T06:49:48;15.95;;;8.07;;
19207;SDS011;9737;59.466;18.036;2023-02-22T06:52:21;15.00;;;8.20;;
19207;SDS011;9737;59.466;18.036;2023-02-22T06:54:52;17.95;;;8.43;;
19207;SDS011;9737;59.466;18.036;2023-02-22T06:57:20;16.42;;;8.25;;
19207;SDS011;9737;59.466;18.036;2023-02-22T06:59:48;19.38;;;9.15;;
19207;SDS011;9737;59.466;18.036;2023-02-22T07:02:16;21.40;;;8.20;;
19207;SDS011;9737;59.466;18.036;2023-02-22T07:04:44;17.27;;;8.68;;
19207;SDS011;9737;59.466;18.036;2023-02-22T07:07:12;14.05;;;8.50;;
19207;SDS011;9737;59.466;18.036;2023-02-22T07:09:40;14.98;;;7.68;;
19207;SDS011;9737;59.466;18.036;2023-02-22T07:12:12;14.52;;;7.63;;
19207;SDS011;9737;59.466;18.036;2023-02-22T07:14:40;13.07;;;7.00;;
19207;SDS011;9737;59.466;18.036;2023-02-22T07:17:08;12.55;;;6.78;;
19207;SDS011;9737;59.466;18.036;2023-02-22T07:19:37;15.80;;;7.75;;
19207;SDS011;9737;59.466;18.036;2023-02-22T07:22:05;17.58;;;8.57;;
19207;SDS011;9737;59.466;18.036;2023-02-22T07:24:33;14.27;;;7.55;;
19207;SDS011;9737;59.466;18.036;2023-02-22T07:27:01;13.20;;;7.40;;
19207;SDS011;9737;59.466;18.036;2023-02-22T07:29:30;16.90;;;7.95;;
19207;SDS011;9737;59.466;18.036;2023-02-22T07:32:01;15.43;;;8.25;;
19207;SDS011;9737;59.466;18.036;2023-02-22T07:34:29;14.07;;;7.70;;
19207;SDS011;9737;59.466;18.036;2023-02-22T07:36:57;13.30;;;7.50;;
19207;SDS011;9737;59.466;18.036;2023-02-22T07:39:25;14.55;;;8.65;;
19207;SDS011;9737;59.466;18.036;2023-02-22T07:41:52;14.25;;;7.93;;
19207;SDS011;9737;59.466;18.036;2023-02-22T07:44:20;16.38;;;7.93;;
19207;SDS011;9737;59.466;18.036;2023-02-22T07:46:49;13.80;;;7.68;;
19207;SDS011;9737;59.466;18.036;2023-02-22T07:49:17;17.55;;;8.95;;
19207;SDS011;9737;59.466;18.036;2023-02-22T07:51:45;17.67;;;9.30;;
19207;SDS011;9737;59.466;18.036;2023-02-22T07:54:13;15.48;;;8.55;;
19207;SDS011;9737;59.466;18.036;2023-02-22T07:56:43;18.20;;;8.27;;
19207;SDS011;9737;59.466;18.036;2023-02-22T07:59:11;16.30;;;8.02;;
19207;SDS011;9737;59.466;18.036;2023-02-22T08:01:40;13.23;;;7.75;;
19207;SDS011;9737;59.466;18.036;2023-02-22T08:04:09;14.95;;;7.88;;
19207;SDS011;9737;59.466;18.036;2023-02-22T08:06:37;11.90;;;6.97;;
19207;SDS011;9737;59.466;18.036;2023-02-22T08:09:05;13.82;;;7.53;;
19207;SDS011;9737;59.466;18.036;2023-02-22T08:11:33;12.70;;;7.53;;
19207;SDS011;9737;59.466;18.036;2023-02-22T08:14:01;16.98;;;7.85;;
19207;SDS011;9737;59.466;18.036;2023-02-22T08:16:28;13.10;;;7.30;;
19207;SDS011;9737;59.466;18.036;2023-02-22T08:18:56;11.43;;;7.13;;
19207;SDS011;9737;59.466;18.036;2023-02-22T08:21:25;11.85;;;6.82;;
19207;SDS011;9737;59.466;18.036;2023-02-22T08:23:53;10.57;;;6.93;;
19207;SDS011;9737;59.466;18.036;2023-02-22T08:26:21;12.02;;;6.88;;
19207;SDS011;9737;59.466;18.036;2023-02-22T08:28:50;12.63;;;7.10;;
19207;SDS011;9737;59.466;18.036;2023-02-22T08:31:18;13.20;;;7.95;;
19207;SDS011;9737;59.466;18.036;2023-02-22T08:33:47;15.15;;;7.55;;
19207;SDS011;9737;59.466;18.036;2023-02-22T08:36:15;11.68;;;7.28;;
19207;SDS011;9737;59.466;18.036;2023-02-22T08:38:45;12.48;;;7.53;;
19207;SDS011;9737;59.466;18.036;2023-02-22T08:41:13;12.95;;;7.72;;
19207;SDS011;9737;59.466;18.036;2023-02-22T08:43:41;13.10;;;7.32;;
19207;SDS011;9737;59.466;18.036;2023-02-22T08:46:08;12.70;;;7.32;;
19207;SDS011;9737;59.466;18.036;2023-02-22T08:48:36;15.55;;;7.72;;
19207;SDS011;9737;59.466;18.036;2023-02-22T08:51:04;15.52;;;7.60;;
19207;SDS011;9737;59.466;18.036;2023-02-22T08:53:32;12.02;;;7.07;;
19207;SDS011;9737;59.466;18.036;2023-02-22T08:56:04;14.63;;;7.55;;
19207;SDS011;9737;59.466;18.036;2023-02-22T08:58:33;13.25;;;7.35;;
19207;SDS011;9737;59.466;18.036;2023-02-22T09:01:00;14.48;;;7.60;;
19207;SDS011;9737;59.466;18.036;2023-02-22T09:03:28;16.65;;;7.22;;
19207;SDS011;9737;59.466;18.036;2023-02-22T09:05:56;12.07;;;6.80;;
19207;SDS011;9737;59.466;18.036;2023-02-22T09:08:25;15.27;;;7.90;;
19207;SDS011;9737;59.466;18.036;2023-02-22T09:10:53;9.82;;;6.43;;
19207;SDS011;9737;59.466;18.036;2023-02-22T09:13:22;11.00;;;6.57;;
19207;SDS011;9737;59.466;18.036;2023-02-22T09:15:50;10.43;;;6.03;;
19207;SDS011;9737;59.466;18.036;2023-02-22T09:18:18;10.20;;;5.93;;
19207;SDS011;9737;59.466;18.036;2023-02-22T09:20:46;9.88;;;5.97;;
19207;SDS011;9737;59.466;18.036;2023-02-22T09:23:14;9.40;;;6.15;;
19207;SDS011;9737;59.466;18.036;2023-02-22T09:25:42;7.65;;;5.88;;
19207;SDS011;9737;59.466;18.036;2023-02-22T09:28:09;10.98;;;5.97;;
19207;SDS011;9737;59.466;18.036;2023-02-22T09:30:38;7.60;;;5.05;;
19207;SDS011;9737;59.466;18.036;2023-02-22T09:33:08;8.10;;;5.38;;
19207;SDS011;9737;59.466;18.036;2023-02-22T09:35:38;8.38;;;5.22;;
19207;SDS011;9737;59.466;18.036;2023-02-22T09:38:08;10.85;;;5.28;;
19207;SDS011;9737;59.466;18.036;2023-02-22T09:40:39;8.15;;;5.57;;
19207;SDS011;9737;59.466;18.036;2023-02-22T09:43:17;8.02;;;5.35;;
19207;SDS011;9737;59.466;18.036;2023-02-22T09:45:56;9.48;;;5.70;;
19207;SDS011;9737;59.466;18.036;2023-02-22T09:48:33;9.52;;;5.72;;
19207;SDS011;9737;59.466;18.036;2023-02-22T09:51:07;9.85;;;5.60;;
19207;SDS011;9737;59.466;18.036;2023-02-22T09:53:45;7.95;;;5.15;;
19207;SDS011;9737;59.466;18.036;2023-02-22T09:56:17;9.82;;;5.38;;
19207;SDS011;9737;59.466;18.036;2023-02-22T09:58:49;7.68;;;5.05;;
19207;SDS011;9737;59.466;18.036;2023-02-22T10:01:23;9.50;;;5.50;;
19207;SDS011;9737;59.466;18.036;2023-02-22T10:03:56;10.05;;;5.57;;
19207;SDS011;9737;59.466;18.036;2023-02-22T10:06:30;9.73;;;5.80;;
19207;SDS011;9737;59.466;18.036;2023-02-22T10:09:00;9.15;;;5.45;;
19207;SDS011;9737;59.466;18.036;2023-02-22T10:11:45;9.10;;;5.70;;
19207;SDS011;9737;59.466;18.036;2023-02-22T10:17:18;7.95;;;5.25;;
19207;SDS011;9737;59.466;18.036;2023-02-22T10:19:58;8.50;;;5.63;;
19207;SDS011;9737;59.466;18.036;2023-02-22T10:22:41;9.00;;;5.80;;
19207;SDS011;9737;59.466;18.036;2023-02-22T10:25:16;10.13;;;6.07;;
19207;SDS011;9737;59.466;18.036;2023-02-22T10:27:47;9.18;;;5.57;;
19207;SDS011;9737;59.466;18.036;2023-02-22T10:30:22;8.73;;;5.68;;
19207;SDS011;9737;59.466;18.036;2023-02-22T10:32:56;10.13;;;5.47;;
19207;SDS011;9737;59.466;18.036;2023-02-22T10:35:32;9.18;;;5.78;;
19207;SDS011;9737;59.466;18.036;2023-02-22T10:38:05;10.05;;;5.97;;
19207;SDS011;9737;59.466;18.036;2023-02-22T10:40:42;11.05;;;5.72;;
19207;SDS011;9737;59.466;18.036;2023-02-22T10:43:13;10.98;;;6.10;;
19207;SDS011;9737;59.466;18.036;2023-02-22T10:45:41;13.00;;;6.63;;
19207;SDS011;9737;59.466;18.036;2023-02-22T10:48:11;9.85;;;6.03;;
19207;SDS011;9737;59.466;18.036;2023-02-22T10:50:44;13.23;;;6.70;;
19207;SDS011;9737;59.466;18.036;2023-02-22T10:53:13;11.10;;;5.88;;
19207;SDS011;9737;59.466;18.036;2023-02-22T10:58:42;15.63;;;6.30;;
19207;SDS011;9737;59.466;18.036;2023-02-22T11:01:21;11.18;;;6.18;;
19207;SDS011;9737;59.466;18.036;2023-02-22T11:03:57;12.32;;;6.50;;
19207;SDS011;9737;59.466;18.036;2023-02-22T11:06:26;10.52;;;6.32;;
19207;SDS011;9737;59.466;18.036;2023-02-22T11:09:08;12.35;;;6.53;;
19207;SDS011;9737;59.466;18.036;2023-02-22T11:11:39;13.18;;;6.47;;
19207;SDS011;9737;59.466;18.036;2023-02-22T11:14:09;10.02;;;6.32;;
19207;SDS011;9737;59.466;18.036;2023-02-22T11:16:39;12.85;;;6.40;;
19207;SDS011;9737;59.466;18.036;2023-02-22T11:19:18;10.18;;;6.10;;
19207;SDS011;9737;59.466;18.036;2023-02-22T11:21:50;11.45;;;6.13;;
19207;SDS011;9737;59.466;18.036;2023-02-22T11:24:20;10.25;;;5.93;;
19207;SDS011;9737;59.466;18.036;2023-02-22T11:26:59;10.18;;;5.90;;
19207;SDS011;9737;59.466;18.036;2023-02-22T11:29:30;10.77;;;6.03;;
19207;SDS011;9737;59.466;18.036;2023-02-22T11:31:59;9.95;;;5.72;;
19207;SDS011;9737;59.466;18.036;2023-02-22T11:34:33;10.25;;;6.10;;
19207;SDS011;9737;59.466;18.036;2023-02-22T11:37:16;11.25;;;5.40;;
19207;SDS011;9737;59.466;18.036;2023-02-22T11:40:03;9.48;;;5.68;;
19207;SDS011;9737;59.466;18.036;2023-02-22T11:42:33;9.15;;;5.80;;
19207;SDS011;9737;59.466;18.036;2023-02-22T11:45:08;9.07;;;5.80;;
19207;SDS011;9737;59.466;18.036;2023-02-22T11:47:51;10.25;;;5.80;;
19207;SDS011;9737;59.466;18.036;2023-02-22T11:50:25;9.60;;;5.57;;
19207;SDS011;9737;59.466;18.036;2023-02-22T11:53:02;10.32;;;5.82;;
19207;SDS011;9737;59.466;18.036;2023-02-22T11:55:41;9.18;;;5.78;;
19207;SDS011;9737;59.466;18.036;2023-02-22T11:58:29;10.38;;;5.53;;
19207;SDS011;9737;59.466;18.036;2023-02-22T12:01:07;9.32;;;5.68;;
19207;SDS011;9737;59.466;18.036;2023-02-22T12:03:46;11.73;;;5.28;;
19207;SDS011;9737;59.466;18.036;2023-02-22T12:06:32;10.07;;;5.68;;
19207;SDS011;9737;59.466;18.036;2023-02-22T12:09:10;8.82;;;5.60;;
19207;SDS011;9737;59.466;18.036;2023-02-22T12:11:47;8.20;;;5.07;;
19207;SDS011;9737;59.466;18.036;2023-02-22T12:14:25;7.57;;;4.93;;
19207;SDS011;9737;59.466;18.036;2023-02-22T12:17:06;8.45;;;5.35;;
19207;SDS011;9737;59.466;18.036;2023-02-22T12:19:46;10.13;;;5.70;;
19207;SDS011;9737;59.466;18.036;2023-02-22T12:22:18;11.50;;;6.70;;
19207;SDS011;9737;59.466;18.036;2023-02-22T12:24:52;7.30;;;5.10;;
19207;SDS011;9737;59.466;18.036;2023-02-22T12:27:35;8.45;;;5.47;;
19207;SDS011;9737;59.466;18.036;2023-02-22T12:30:10;11.55;;;5.63;;
19207;SDS011;9737;59.466;18.036;2023-02-22T12:32:43;10.85;;;5.72;;
19207;SDS011;9737;59.466;18.036;2023-02-22T12:35:18;9.00;;;5.57;;
19207;SDS011;9737;59.466;18.036;2023-02-22T12:37:53;11.15;;;5.47;;
19207;SDS011;9737;59.466;18.036;2023-02-22T12:40:31;12.35;;;5.20;;
19207;SDS011;9737;59.466;18.036;2023-02-22T12:43:05;10.82;;;6.35;;
19207;SDS011;9737;59.466;18.036;2023-02-22T12:45:43;14.38;;;5.90;;
19207;SDS011;9737;59.466;18.036;2023-02-22T12:48:24;12.52;;;6.15;;
19207;SDS011;9737;59.466;18.036;2023-02-22T12:51:14;9.75;;;5.57;;
19207;SDS011;9737;59.466;18.036;2023-02-22T12:53:53;9.30;;;5.60;;
19207;SDS011;9737;59.466;18.036;2023-02-22T12:56:28;9.43;;;5.70;;
19207;SDS011;9737;59.466;18.036;2023-02-22T12:59:02;10.13;;;6.35;;
19207;SDS011;9737;59.466;18.036;2023-02-22T13:01:37;11.43;;;6.43;;
19207;SDS011;9737;59.466;18.036;2023-02-22T13:04:08;12.55;;;5.85;;
19207;SDS011;9737;59.466;18.036;2023-02-22T13:09:45;12.93;;;6.45;;
19207;SDS011;9737;59.466;18.036;2023-02-22T13:12:40;11.65;;;5.93;;
19207;SDS011;9737;59.466;18.036;2023-02-22T13:15:19;13.75;;;7.03;;
19207;SDS011;9737;59.466;18.036;2023-02-22T13:17:55;12.95;;;7.25;;
19207;SDS011;9737;59.466;18.036;2023-02-22T13:20:29;16.42;;;7.88;;
19207;SDS011;9737;59.466;18.036;2023-02-22T13:23:02;18.13;;;8.30;;
19207;SDS011;9737;59.466;18.036;2023-02-22T13:25:37;14.48;;;7.82;;
19207;SDS011;9737;59.466;18.036;2023-02-22T13:28:22;13.98;;;7.53;;
19207;SDS011;9737;59.466;18.036;2023-02-22T13:31:00;14.10;;;7.18;;
19207;SDS011;9737;59.466;18.036;2023-02-22T13:33:55;16.40;;;7.10;;
19207;SDS011;9737;59.466;18.036;2023-02-22T13:36:35;15.00;;;7.72;;
19207;SDS011;9737;59.466;18.036;2023-02-22T13:39:15;14.15;;;8.02;;
19207;SDS011;9737;59.466;18.036;2023-02-22T13:42:04;17.20;;;8.30;;
19207;SDS011;9737;59.466;18.036;2023-02-22T13:45:03;14.98;;;7.70;;
19207;SDS011;9737;59.466;18.036;2023-02-22T13:48:00;16.17;;;7.68;;
19207;SDS011;9737;59.466;18.036;2023-02-22T13:50:49;13.55;;;6.97;;
19207;SDS011;9737;59.466;18.036;2023-02-22T13:53:26;16.80;;;8.32;;
19207;SDS011;9737;59.466;18.036;2023-02-22T13:56:00;15.48;;;8.20;;
19207;SDS011;9737;59.466;18.036;2023-02-22T13:58:31;15.48;;;8.27;;
19207;SDS011;9737;59.466;18.036;2023-02-22T14:00:59;13.85;;;7.57;;
19207;SDS011;9737;59.466;18.036;2023-02-22T14:03:32;13.40;;;7.45;;
19207;SDS011;9737;59.466;18.036;2023-02-22T14:06:07;13.98;;;7.82;;
19207;SDS011;9737;59.466;18.036;2023-02-22T14:08:37;17.75;;;8.35;;
19207;SDS011;9737;59.466;18.036;2023-02-22T14:14:21;16.05;;;8.15;;
19207;SDS011;9737;59.466;18.036;2023-02-22T14:19:58;15.77;;;7.55;;
19207;SDS011;9737;59.466;18.036;2023-02-22T14:22:27;15.05;;;7.70;;
19207;SDS011;9737;59.466;18.036;2023-02-22T14:24:56;15.13;;;8.15;;
19207;SDS011;9737;59.466;18.036;2023-02-22T14:27:24;14.60;;;7.45;;
19207;SDS011;9737;59.466;18.036;2023-02-22T14:30:21;17.88;;;8.23;;
19207;SDS011;9737;59.466;18.036;2023-02-22T14:32:53;16.88;;;8.13;;
19207;SDS011;9737;59.466;18.036;2023-02-22T14:35:21;14.98;;;8.30;;
19207;SDS011;9737;59.466;18.036;2023-02-22T14:37:58;16.45;;;7.93;;
19207;SDS011;9737;59.466;18.036;2023-02-22T14:40:28;19.23;;;8.88;;
19207;SDS011;9737;59.466;18.036;2023-02-22T14:42:59;15.45;;;7.80;;
19207;SDS011;9737;59.466;18.036;2023-02-22T14:45:33;16.15;;;8.20;;
19207;SDS011;9737;59.466;18.036;2023-02-22T14:48:11;15.93;;;7.13;;
19207;SDS011;9737;59.466;18.036;2023-02-22T14:50:50;20.95;;;8.52;;
19207;SDS011;9737;59.466;18.036;2023-02-22T14:53:25;17.65;;;8.75;;
19207;SDS011;9737;59.466;18.036;2023-02-22T14:56:02;16.15;;;8.30;;
19207;SDS011;9737;59.466;18.036;2023-02-22T14:58:35;15.55;;;8.02;;
19207;SDS011;9737;59.466;18.036;2023-02-22T15:01:25;18.95;;;7.97;;
19207;SDS011;9737;59.466;18.036;2023-02-22T15:04:16;15.70;;;8.07;;
19207;SDS011;9737;59.466;18.036;2023-02-22T15:06:45;16.77;;;8.35;;
19207;SDS011;9737;59.466;18.036;2023-02-22T15:09:14;15.40;;;7.93;;
19207;SDS011;9737;59.466;18.036;2023-02-22T15:11:52;17.17;;;8.10;;
19207;SDS011;9737;59.466;18.036;2023-02-22T15:14:22;17.33;;;8.07;;
19207;SDS011;9737;59.466;18.036;2023-02-22T15:16:54;16.35;;;7.93;;
19207;SDS011;9737;59.466;18.036;2023-02-22T15:19:25;14.25;;;7.82;;
19207;SDS011;9737;59.466;18.036;2023-02-22T15:21:55;17.70;;;8.25;;
19207;SDS011;9737;59.466;18.036;2023-02-22T15:24:25;17.67;;;8.10;;
19207;SDS011;9737;59.466;18.036;2023-02-22T15:26:54;14.63;;;7.45;;
19207;SDS011;9737;59.466;18.036;2023-02-22T15:29:32;17.55;;;8.13;;